sensor_id;sensor_type;location;lat;lon;timestamp;temperature;humidity
40059;SHT31;25763;49.972;8.568;2022-09-03T00:02:19;18.08;52.42
40059;SHT31;25763;49.972;8.568;2022-09-03T00:04:49;18.08;52.29
40059;SHT31;25763;49.972;8.568;2022-09-03T00:07:27;18.02;52.19
40059;SHT31;25763;49.972;8.568;2022-09-03T00:10:03;18.02;52.78
40059;SHT31;25763;49.972;8.568;2022-09-03T00:12:33;17.96;53.08
40059;SHT31;25763;49.972;8.568;2022-09-03T00:15:21;17.91;53.18
40059;SHT31;25763;49.972;8.568;2022-09-03T00:17:54;17.89;52.59
40059;SHT31;25763;49.972;8.568;2022-09-03T00:20:30;17.88;52.80
40059;SHT31;25763;49.972;8.568;2022-09-03T00:23:00;17.85;52.78
40059;SHT31;25763;49.972;8.568;2022-09-03T00:25:48;17.81;52.77
40059;SHT31;25763;49.972;8.568;2022-09-03T00:28:22;17.82;53.04
40059;SHT31;25763;49.972;8.568;2022-09-03T00:31:05;17.55;52.08
40059;SHT31;25763;49.972;8.568;2022-09-03T00:33:32;17.25;53.29
40059;SHT31;25763;49.972;8.568;2022-09-03T00:38:28;17.18;54.24
40059;SHT31;25763;49.972;8.568;2022-09-03T00:41:16;17.30;54.22
40059;SHT31;25763;49.972;8.568;2022-09-03T00:46:45;17.41;54.02
40059;SHT31;25763;49.972;8.568;2022-09-03T00:52:12;17.50;54.19
40059;SHT31;25763;49.972;8.568;2022-09-03T00:55:02;17.50;53.52
40059;SHT31;25763;49.972;8.568;2022-09-03T01:00:22;17.46;53.66
40059;SHT31;25763;49.972;8.568;2022-09-03T01:03:11;17.43;53.67
40059;SHT31;25763;49.972;8.568;2022-09-03T01:08:29;17.27;53.87
40059;SHT31;25763;49.972;8.568;2022-09-03T01:11:15;17.34;54.22
40059;SHT31;25763;49.972;8.568;2022-09-03T01:16:42;17.39;53.87
40059;SHT31;25763;49.972;8.568;2022-09-03T01:22:41;17.36;54.45
40059;SHT31;25763;49.972;8.568;2022-09-03T01:25:24;17.12;53.90
40059;SHT31;25763;49.972;8.568;2022-09-03T01:28:22;17.11;54.48
40059;SHT31;25763;49.972;8.568;2022-09-03T01:30:56;16.94;54.47
40059;SHT31;25763;49.972;8.568;2022-09-03T01:33:34;16.78;54.91
40059;SHT31;25763;49.972;8.568;2022-09-03T01:38:59;16.63;55.31
40059;SHT31;25763;49.972;8.568;2022-09-03T01:42:12;16.64;55.58
40059;SHT31;25763;49.972;8.568;2022-09-03T01:45:12;16.77;55.41
40059;SHT31;25763;49.972;8.568;2022-09-03T01:52:54;16.75;55.31
40059;SHT31;25763;49.972;8.568;2022-09-03T01:55:30;16.91;55.87
40059;SHT31;25763;49.972;8.568;2022-09-03T01:58:05;16.85;55.25
40059;SHT31;25763;49.972;8.568;2022-09-03T02:00:33;16.67;55.64
40059;SHT31;25763;49.972;8.568;2022-09-03T02:03:03;16.63;55.90
40059;SHT31;25763;49.972;8.568;2022-09-03T02:05:30;16.80;56.21
40059;SHT31;25763;49.972;8.568;2022-09-03T02:08:01;16.90;56.04
40059;SHT31;25763;49.972;8.568;2022-09-03T02:10:42;16.97;56.10
40059;SHT31;25763;49.972;8.568;2022-09-03T02:13:15;17.04;55.87
40059;SHT31;25763;49.972;8.568;2022-09-03T02:15:44;17.08;55.53
40059;SHT31;25763;49.972;8.568;2022-09-03T02:18:22;17.12;55.72
40059;SHT31;25763;49.972;8.568;2022-09-03T02:20:50;17.16;56.05
40059;SHT31;25763;49.972;8.568;2022-09-03T02:23:16;17.15;55.62
40059;SHT31;25763;49.972;8.568;2022-09-03T02:25:48;17.04;55.40
40059;SHT31;25763;49.972;8.568;2022-09-03T02:28:14;17.04;55.42
40059;SHT31;25763;49.972;8.568;2022-09-03T02:30:41;17.01;55.50
40059;SHT31;25763;49.972;8.568;2022-09-03T02:33:07;17.06;55.59
40059;SHT31;25763;49.972;8.568;2022-09-03T02:35:33;17.18;55.35
40059;SHT31;25763;49.972;8.568;2022-09-03T02:38:20;17.11;55.85
40059;SHT31;25763;49.972;8.568;2022-09-03T02:40:46;17.06;55.74
40059;SHT31;25763;49.972;8.568;2022-09-03T02:43:17;16.91;55.92
40059;SHT31;25763;49.972;8.568;2022-09-03T02:45:47;16.98;56.03
40059;SHT31;25763;49.972;8.568;2022-09-03T02:48:15;16.84;55.95
40059;SHT31;25763;49.972;8.568;2022-09-03T02:50:42;16.78;56.12
40059;SHT31;25763;49.972;8.568;2022-09-03T02:53:08;16.90;56.41
40059;SHT31;25763;49.972;8.568;2022-09-03T02:55:34;16.83;56.25
40059;SHT31;25763;49.972;8.568;2022-09-03T02:58:00;16.87;56.27
40059;SHT31;25763;49.972;8.568;2022-09-03T03:00:25;16.68;56.33
40059;SHT31;25763;49.972;8.568;2022-09-03T03:02:54;16.64;56.91
40059;SHT31;25763;49.972;8.568;2022-09-03T03:05:44;16.68;56.47
40059;SHT31;25763;49.972;8.568;2022-09-03T03:08:10;16.65;56.68
40059;SHT31;25763;49.972;8.568;2022-09-03T03:10:40;16.70;56.44
40059;SHT31;25763;49.972;8.568;2022-09-03T03:13:06;16.73;56.49
40059;SHT31;25763;49.972;8.568;2022-09-03T03:15:31;16.75;56.37
40059;SHT31;25763;49.972;8.568;2022-09-03T03:17:57;16.77;56.39
40059;SHT31;25763;49.972;8.568;2022-09-03T03:20:22;16.75;56.25
40059;SHT31;25763;49.972;8.568;2022-09-03T03:22:48;16.80;56.26
40059;SHT31;25763;49.972;8.568;2022-09-03T03:25:13;16.84;56.27
40059;SHT31;25763;49.972;8.568;2022-09-03T03:27:38;16.84;56.09
40059;SHT31;25763;49.972;8.568;2022-09-03T03:30:07;16.81;56.12
40059;SHT31;25763;49.972;8.568;2022-09-03T03:32:35;16.84;56.53
40059;SHT31;25763;49.972;8.568;2022-09-03T03:35:00;16.90;56.28
40059;SHT31;25763;49.972;8.568;2022-09-03T03:37:25;16.99;56.47
40059;SHT31;25763;49.972;8.568;2022-09-03T03:39:51;17.02;56.22
40059;SHT31;25763;49.972;8.568;2022-09-03T03:42:16;16.98;56.14
40059;SHT31;25763;49.972;8.568;2022-09-03T03:44:41;17.04;56.19
40059;SHT31;25763;49.972;8.568;2022-09-03T03:47:08;16.99;56.09
40059;SHT31;25763;49.972;8.568;2022-09-03T03:49:33;16.99;56.08
40059;SHT31;25763;49.972;8.568;2022-09-03T03:51:59;17.02;56.21
40059;SHT31;25763;49.972;8.568;2022-09-03T03:54:24;17.12;56.86
40059;SHT31;25763;49.972;8.568;2022-09-03T03:56:49;17.22;57.32
40059;SHT31;25763;49.972;8.568;2022-09-03T03:59:15;17.12;56.09
40059;SHT31;25763;49.972;8.568;2022-09-03T04:01:40;17.04;56.43
40059;SHT31;25763;49.972;8.568;2022-09-03T04:04:05;17.08;56.30
40059;SHT31;25763;49.972;8.568;2022-09-03T04:06:31;17.05;56.38
40059;SHT31;25763;49.972;8.568;2022-09-03T04:08:56;17.08;56.30
40059;SHT31;25763;49.972;8.568;2022-09-03T04:11:23;17.08;56.33
40059;SHT31;25763;49.972;8.568;2022-09-03T04:13:50;17.09;56.72
40059;SHT31;25763;49.972;8.568;2022-09-03T04:16:20;17.18;56.91
40059;SHT31;25763;49.972;8.568;2022-09-03T04:18:46;17.26;56.21
40059;SHT31;25763;49.972;8.568;2022-09-03T04:21:18;17.16;56.18
40059;SHT31;25763;49.972;8.568;2022-09-03T04:23:45;17.19;56.45
40059;SHT31;25763;49.972;8.568;2022-09-03T04:26:13;17.22;56.49
40059;SHT31;25763;49.972;8.568;2022-09-03T04:28:39;17.12;56.78
40059;SHT31;25763;49.972;8.568;2022-09-03T04:31:08;17.09;56.82
40059;SHT31;25763;49.972;8.568;2022-09-03T04:33:33;17.15;57.18
40059;SHT31;25763;49.972;8.568;2022-09-03T04:36:11;17.18;57.01
40059;SHT31;25763;49.972;8.568;2022-09-03T04:38:39;17.20;57.22
40059;SHT31;25763;49.972;8.568;2022-09-03T04:41:12;17.22;57.44
40059;SHT31;25763;49.972;8.568;2022-09-03T04:43:38;17.12;57.44
40059;SHT31;25763;49.972;8.568;2022-09-03T04:46:06;17.16;57.67
40059;SHT31;25763;49.972;8.568;2022-09-03T04:48:33;17.22;57.95
40059;SHT31;25763;49.972;8.568;2022-09-03T04:51:03;17.26;57.69
40059;SHT31;25763;49.972;8.568;2022-09-03T04:53:34;17.26;58.03
40059;SHT31;25763;49.972;8.568;2022-09-03T04:56:00;17.29;57.94
40059;SHT31;25763;49.972;8.568;2022-09-03T04:58:25;17.30;57.95
40059;SHT31;25763;49.972;8.568;2022-09-03T05:00:51;17.33;58.17
40059;SHT31;25763;49.972;8.568;2022-09-03T05:03:17;17.32;58.18
40059;SHT31;25763;49.972;8.568;2022-09-03T05:05:44;17.34;58.33
40059;SHT31;25763;49.972;8.568;2022-09-03T05:08:15;17.36;58.64
40059;SHT31;25763;49.972;8.568;2022-09-03T05:10:40;17.36;58.57
40059;SHT31;25763;49.972;8.568;2022-09-03T05:13:06;17.37;58.47
40059;SHT31;25763;49.972;8.568;2022-09-03T05:15:32;17.37;58.61
40059;SHT31;25763;49.972;8.568;2022-09-03T05:17:58;17.40;58.96
40059;SHT31;25763;49.972;8.568;2022-09-03T05:20:24;17.39;58.40
40059;SHT31;25763;49.972;8.568;2022-09-03T05:22:50;17.49;58.75
40059;SHT31;25763;49.972;8.568;2022-09-03T05:25:16;17.47;58.91
40059;SHT31;25763;49.972;8.568;2022-09-03T05:27:41;17.37;58.83
40059;SHT31;25763;49.972;8.568;2022-09-03T05:30:07;17.39;59.30
40059;SHT31;25763;49.972;8.568;2022-09-03T05:32:33;17.36;59.09
40059;SHT31;25763;49.972;8.568;2022-09-03T05:34:59;17.36;59.09
40059;SHT31;25763;49.972;8.568;2022-09-03T05:37:24;17.37;59.15
40059;SHT31;25763;49.972;8.568;2022-09-03T05:39:49;17.33;59.02
40059;SHT31;25763;49.972;8.568;2022-09-03T05:42:15;17.37;59.13
40059;SHT31;25763;49.972;8.568;2022-09-03T05:44:40;17.36;58.86
40059;SHT31;25763;49.972;8.568;2022-09-03T05:47:07;17.39;59.15
40059;SHT31;25763;49.972;8.568;2022-09-03T05:49:33;17.40;59.12
40059;SHT31;25763;49.972;8.568;2022-09-03T05:51:58;17.39;58.52
40059;SHT31;25763;49.972;8.568;2022-09-03T05:54:24;17.41;59.11
40059;SHT31;25763;49.972;8.568;2022-09-03T05:56:50;17.41;59.52
40059;SHT31;25763;49.972;8.568;2022-09-03T05:59:15;17.40;59.68
40059;SHT31;25763;49.972;8.568;2022-09-03T06:01:43;17.37;59.28
40059;SHT31;25763;49.972;8.568;2022-09-03T06:04:13;17.39;59.09
40059;SHT31;25763;49.972;8.568;2022-09-03T06:06:41;17.46;59.66
40059;SHT31;25763;49.972;8.568;2022-09-03T06:09:09;17.33;61.86
40059;SHT31;25763;49.972;8.568;2022-09-03T06:11:37;17.18;63.12
40059;SHT31;25763;49.972;8.568;2022-09-03T06:14:05;17.01;62.80
40059;SHT31;25763;49.972;8.568;2022-09-03T06:16:32;17.01;64.35
40059;SHT31;25763;49.972;8.568;2022-09-03T06:18:59;17.05;64.67
40059;SHT31;25763;49.972;8.568;2022-09-03T06:21:24;17.12;64.77
40059;SHT31;25763;49.972;8.568;2022-09-03T06:23:51;17.20;64.74
40059;SHT31;25763;49.972;8.568;2022-09-03T06:26:18;17.20;62.34
40059;SHT31;25763;49.972;8.568;2022-09-03T06:28:45;17.26;63.74
40059;SHT31;25763;49.972;8.568;2022-09-03T06:31:17;17.26;63.53
40059;SHT31;25763;49.972;8.568;2022-09-03T06:33:43;17.23;64.24
40059;SHT31;25763;49.972;8.568;2022-09-03T06:36:11;17.30;63.27
40059;SHT31;25763;49.972;8.568;2022-09-03T06:38:40;17.23;63.02
40059;SHT31;25763;49.972;8.568;2022-09-03T06:41:14;17.29;64.20
40059;SHT31;25763;49.972;8.568;2022-09-03T06:43:48;17.25;64.36
40059;SHT31;25763;49.972;8.568;2022-09-03T06:46:15;17.29;64.66
40059;SHT31;25763;49.972;8.568;2022-09-03T06:48:41;17.36;64.86
40059;SHT31;25763;49.972;8.568;2022-09-03T06:51:09;17.41;65.50
40059;SHT31;25763;49.972;8.568;2022-09-03T06:53:42;17.43;64.73
40059;SHT31;25763;49.972;8.568;2022-09-03T06:56:10;17.36;64.08
40059;SHT31;25763;49.972;8.568;2022-09-03T06:58:44;17.44;66.08
40059;SHT31;25763;49.972;8.568;2022-09-03T07:01:13;17.41;66.08
40059;SHT31;25763;49.972;8.568;2022-09-03T07:03:41;17.44;65.89
40059;SHT31;25763;49.972;8.568;2022-09-03T07:06:11;17.32;65.62
40059;SHT31;25763;49.972;8.568;2022-09-03T07:08:38;17.36;67.11
40059;SHT31;25763;49.972;8.568;2022-09-03T07:11:05;17.33;66.93
40059;SHT31;25763;49.972;8.568;2022-09-03T07:13:34;17.19;66.94
40059;SHT31;25763;49.972;8.568;2022-09-03T07:16:05;17.05;66.79
40059;SHT31;25763;49.972;8.568;2022-09-03T07:18:31;17.11;67.45
40059;SHT31;25763;49.972;8.568;2022-09-03T07:21:07;17.04;67.74
40059;SHT31;25763;49.972;8.568;2022-09-03T07:23:35;17.05;68.42
40059;SHT31;25763;49.972;8.568;2022-09-03T07:26:05;16.97;68.24
40059;SHT31;25763;49.972;8.568;2022-09-03T07:28:32;16.99;68.77
40059;SHT31;25763;49.972;8.568;2022-09-03T07:31:13;16.85;68.41
40059;SHT31;25763;49.972;8.568;2022-09-03T07:33:40;16.78;69.27
40059;SHT31;25763;49.972;8.568;2022-09-03T07:36:08;16.75;70.18
40059;SHT31;25763;49.972;8.568;2022-09-03T07:38:34;16.73;70.39
40059;SHT31;25763;49.972;8.568;2022-09-03T07:41:03;16.68;71.08
40059;SHT31;25763;49.972;8.568;2022-09-03T07:43:33;16.49;71.81
40059;SHT31;25763;49.972;8.568;2022-09-03T07:45:59;16.32;72.42
40059;SHT31;25763;49.972;8.568;2022-09-03T07:48:25;16.38;73.84
40059;SHT31;25763;49.972;8.568;2022-09-03T07:50:51;16.24;74.11
40059;SHT31;25763;49.972;8.568;2022-09-03T07:53:17;16.21;75.61
40059;SHT31;25763;49.972;8.568;2022-09-03T07:55:45;16.07;75.75
40059;SHT31;25763;49.972;8.568;2022-09-03T07:58:11;15.91;77.00
40059;SHT31;25763;49.972;8.568;2022-09-03T08:00:38;15.88;77.74
40059;SHT31;25763;49.972;8.568;2022-09-03T08:03:04;15.86;78.16
40059;SHT31;25763;49.972;8.568;2022-09-03T08:05:33;15.70;78.89
40059;SHT31;25763;49.972;8.568;2022-09-03T08:08:03;15.77;78.34
40059;SHT31;25763;49.972;8.568;2022-09-03T08:10:30;15.76;79.39
40059;SHT31;25763;49.972;8.568;2022-09-03T08:12:57;15.73;79.37
40059;SHT31;25763;49.972;8.568;2022-09-03T08:15:24;15.71;80.05
40059;SHT31;25763;49.972;8.568;2022-09-03T08:17:49;15.63;80.74
40059;SHT31;25763;49.972;8.568;2022-09-03T08:20:15;15.70;81.26
40059;SHT31;25763;49.972;8.568;2022-09-03T08:22:40;15.79;81.52
40059;SHT31;25763;49.972;8.568;2022-09-03T08:25:06;16.00;81.65
40059;SHT31;25763;49.972;8.568;2022-09-03T08:27:32;15.94;80.77
40059;SHT31;25763;49.972;8.568;2022-09-03T08:29:57;15.90;80.95
40059;SHT31;25763;49.972;8.568;2022-09-03T08:32:22;16.05;81.28
40059;SHT31;25763;49.972;8.568;2022-09-03T08:34:48;15.98;81.57
40059;SHT31;25763;49.972;8.568;2022-09-03T08:37:14;15.86;81.92
40059;SHT31;25763;49.972;8.568;2022-09-03T08:39:40;16.01;82.40
40059;SHT31;25763;49.972;8.568;2022-09-03T08:42:41;16.08;82.07
40059;SHT31;25763;49.972;8.568;2022-09-03T08:45:14;16.50;80.88
40059;SHT31;25763;49.972;8.568;2022-09-03T08:47:47;16.55;79.26
40059;SHT31;25763;49.972;8.568;2022-09-03T08:52:49;16.87;78.51
40059;SHT31;25763;49.972;8.568;2022-09-03T08:58:26;16.97;75.89
40059;SHT31;25763;49.972;8.568;2022-09-03T09:01:03;17.18;77.27
40059;SHT31;25763;49.972;8.568;2022-09-03T09:03:52;17.26;76.70
40059;SHT31;25763;49.972;8.568;2022-09-03T09:17:54;16.92;76.52
40059;SHT31;25763;49.972;8.568;2022-09-03T09:20:39;17.20;77.33
40059;SHT31;25763;49.972;8.568;2022-09-03T09:23:23;17.36;76.91
40059;SHT31;25763;49.972;8.568;2022-09-03T09:25:52;17.40;75.61
40059;SHT31;25763;49.972;8.568;2022-09-03T09:28:31;17.08;76.72
40059;SHT31;25763;49.972;8.568;2022-09-03T09:31:00;17.18;76.75
40059;SHT31;25763;49.972;8.568;2022-09-03T09:33:28;17.11;76.05
40059;SHT31;25763;49.972;8.568;2022-09-03T09:35:54;17.19;75.78
40059;SHT31;25763;49.972;8.568;2022-09-03T09:38:28;17.36;76.07
40059;SHT31;25763;49.972;8.568;2022-09-03T09:40:53;17.22;76.39
40059;SHT31;25763;49.972;8.568;2022-09-03T09:43:21;17.15;76.55
40059;SHT31;25763;49.972;8.568;2022-09-03T09:45:49;17.15;77.28
40059;SHT31;25763;49.972;8.568;2022-09-03T09:48:25;17.25;76.97
40059;SHT31;25763;49.972;8.568;2022-09-03T09:51:10;17.51;76.91
40059;SHT31;25763;49.972;8.568;2022-09-03T09:53:37;17.68;76.53
40059;SHT31;25763;49.972;8.568;2022-09-03T09:56:04;17.60;75.36
40059;SHT31;25763;49.972;8.568;2022-09-03T09:58:31;17.74;76.22
40059;SHT31;25763;49.972;8.568;2022-09-03T10:01:00;17.78;75.36
40059;SHT31;25763;49.972;8.568;2022-09-03T10:03:28;18.00;75.83
40059;SHT31;25763;49.972;8.568;2022-09-03T10:06:04;18.05;74.27
40059;SHT31;25763;49.972;8.568;2022-09-03T10:08:51;18.13;75.19
40059;SHT31;25763;49.972;8.568;2022-09-03T10:11:19;18.28;75.29
40059;SHT31;25763;49.972;8.568;2022-09-03T10:13:46;18.79;76.46
40059;SHT31;25763;49.972;8.568;2022-09-03T10:16:20;19.03;74.58
40059;SHT31;25763;49.972;8.568;2022-09-03T10:21:31;19.03;72.66
40059;SHT31;25763;49.972;8.568;2022-09-03T10:24:18;18.90;72.37
40059;SHT31;25763;49.972;8.568;2022-09-03T10:26:46;18.48;73.95
40059;SHT31;25763;49.972;8.568;2022-09-03T10:29:17;18.72;75.35
40059;SHT31;25763;49.972;8.568;2022-09-03T10:31:54;18.97;73.36
40059;SHT31;25763;49.972;8.568;2022-09-03T10:43:07;19.58;71.66
40059;SHT31;25763;49.972;8.568;2022-09-03T10:46:09;19.20;72.09
40059;SHT31;25763;49.972;8.568;2022-09-03T10:49:01;19.15;72.87
40059;SHT31;25763;49.972;8.568;2022-09-03T10:51:41;19.42;73.14
40059;SHT31;25763;49.972;8.568;2022-09-03T11:05:06;20.45;68.36
40059;SHT31;25763;49.972;8.568;2022-09-03T11:07:36;20.50;68.88
40059;SHT31;25763;49.972;8.568;2022-09-03T11:10:18;20.83;69.45
40059;SHT31;25763;49.972;8.568;2022-09-03T11:12:54;21.16;70.26
40059;SHT31;25763;49.972;8.568;2022-09-03T11:15:30;20.95;67.62
40059;SHT31;25763;49.972;8.568;2022-09-03T11:18:17;21.09;68.58
40059;SHT31;25763;49.972;8.568;2022-09-03T11:20:46;21.16;68.21
40059;SHT31;25763;49.972;8.568;2022-09-03T11:23:13;20.95;67.72
40059;SHT31;25763;49.972;8.568;2022-09-03T11:25:42;21.05;67.66
40059;SHT31;25763;49.972;8.568;2022-09-03T11:28:28;21.19;65.94
40059;SHT31;25763;49.972;8.568;2022-09-03T11:33:58;21.58;66.85
40059;SHT31;25763;49.972;8.568;2022-09-03T11:36:31;21.46;66.40
40059;SHT31;25763;49.972;8.568;2022-09-03T11:38:57;21.36;65.28
40059;SHT31;25763;49.972;8.568;2022-09-03T11:41:25;21.53;66.04
40059;SHT31;25763;49.972;8.568;2022-09-03T11:43:51;21.40;66.14
40059;SHT31;25763;49.972;8.568;2022-09-03T11:49:08;21.43;64.99
40059;SHT31;25763;49.972;8.568;2022-09-03T11:51:35;21.35;66.27
40059;SHT31;25763;49.972;8.568;2022-09-03T11:56:32;21.68;66.62
40059;SHT31;25763;49.972;8.568;2022-09-03T11:59:04;22.17;64.93
40059;SHT31;25763;49.972;8.568;2022-09-03T12:01:33;22.58;65.84
40059;SHT31;25763;49.972;8.568;2022-09-03T12:04:05;22.20;62.72
40059;SHT31;25763;49.972;8.568;2022-09-03T12:07:01;21.54;65.09
40059;SHT31;25763;49.972;8.568;2022-09-03T12:09:52;21.30;66.11
40059;SHT31;25763;49.972;8.568;2022-09-03T12:12:35;21.38;65.73
40059;SHT31;25763;49.972;8.568;2022-09-03T12:15:29;21.40;65.86
40059;SHT31;25763;49.972;8.568;2022-09-03T12:18:03;21.23;65.83
40059;SHT31;25763;49.972;8.568;2022-09-03T12:23:48;21.12;65.52
40059;SHT31;25763;49.972;8.568;2022-09-03T12:26:20;21.24;65.32
40059;SHT31;25763;49.972;8.568;2022-09-03T12:28:53;21.58;65.60
40059;SHT31;25763;49.972;8.568;2022-09-03T12:31:22;21.98;63.97
40059;SHT31;25763;49.972;8.568;2022-09-03T12:33:50;21.91;62.73
40059;SHT31;25763;49.972;8.568;2022-09-03T12:36:19;21.85;64.32
40059;SHT31;25763;49.972;8.568;2022-09-03T12:38:44;22.10;64.23
40059;SHT31;25763;49.972;8.568;2022-09-03T12:41:38;22.16;63.54
40059;SHT31;25763;49.972;8.568;2022-09-03T12:44:04;22.12;62.71
40059;SHT31;25763;49.972;8.568;2022-09-03T12:46:31;22.08;63.30
40059;SHT31;25763;49.972;8.568;2022-09-03T12:49:01;22.30;63.63
40059;SHT31;25763;49.972;8.568;2022-09-03T12:51:35;22.22;62.03
40059;SHT31;25763;49.972;8.568;2022-09-03T12:54:02;22.19;62.46
40059;SHT31;25763;49.972;8.568;2022-09-03T12:56:30;22.43;64.37
40059;SHT31;25763;49.972;8.568;2022-09-03T12:59:03;22.44;62.78
40059;SHT31;25763;49.972;8.568;2022-09-03T13:01:43;22.53;62.38
40059;SHT31;25763;49.972;8.568;2022-09-03T13:04:13;22.57;62.54
40059;SHT31;25763;49.972;8.568;2022-09-03T13:09:14;22.83;62.93
40059;SHT31;25763;49.972;8.568;2022-09-03T13:11:42;23.33;62.85
40059;SHT31;25763;49.972;8.568;2022-09-03T13:14:11;23.63;61.18
40059;SHT31;25763;49.972;8.568;2022-09-03T13:16:50;23.89;61.10
40059;SHT31;25763;49.972;8.568;2022-09-03T13:19:29;24.13;60.51
40059;SHT31;25763;49.972;8.568;2022-09-03T13:22:05;24.16;59.99
40059;SHT31;25763;49.972;8.568;2022-09-03T13:27:31;24.48;59.00
40059;SHT31;25763;49.972;8.568;2022-09-03T13:30:10;24.48;57.84
40059;SHT31;25763;49.972;8.568;2022-09-03T13:33:00;23.96;58.29
40059;SHT31;25763;49.972;8.568;2022-09-03T13:35:48;23.82;58.84
40059;SHT31;25763;49.972;8.568;2022-09-03T13:38:29;23.38;60.06
40059;SHT31;25763;49.972;8.568;2022-09-03T13:41:40;23.74;63.18
40059;SHT31;25763;49.972;8.568;2022-09-03T13:44:31;23.83;58.32
40059;SHT31;25763;49.972;8.568;2022-09-03T13:47:04;23.94;57.58
40059;SHT31;25763;49.972;8.568;2022-09-03T13:53:08;24.04;58.45
40059;SHT31;25763;49.972;8.568;2022-09-03T13:55:44;24.24;59.05
40059;SHT31;25763;49.972;8.568;2022-09-03T13:58:47;24.21;57.56
40059;SHT31;25763;49.972;8.568;2022-09-03T14:01:25;23.85;58.18
40059;SHT31;25763;49.972;8.568;2022-09-03T14:04:00;23.88;58.50
40059;SHT31;25763;49.972;8.568;2022-09-03T14:06:37;24.00;59.40
40059;SHT31;25763;49.972;8.568;2022-09-03T14:09:13;23.78;59.48
40059;SHT31;25763;49.972;8.568;2022-09-03T14:16:59;23.83;58.11
40059;SHT31;25763;49.972;8.568;2022-09-03T14:19:51;23.71;58.52
40059;SHT31;25763;49.972;8.568;2022-09-03T14:22:28;23.55;58.92
40059;SHT31;25763;49.972;8.568;2022-09-03T14:25:00;23.37;58.75
40059;SHT31;25763;49.972;8.568;2022-09-03T14:27:29;23.50;59.59
40059;SHT31;25763;49.972;8.568;2022-09-03T14:30:00;23.52;59.05
40059;SHT31;25763;49.972;8.568;2022-09-03T14:32:42;23.54;58.97
40059;SHT31;25763;49.972;8.568;2022-09-03T14:40:13;23.55;58.60
40059;SHT31;25763;49.972;8.568;2022-09-03T14:42:58;23.65;59.81
40059;SHT31;25763;49.972;8.568;2022-09-03T14:45:38;23.81;59.74
40059;SHT31;25763;49.972;8.568;2022-09-03T14:51:47;24.02;59.79
40059;SHT31;25763;49.972;8.568;2022-09-03T15:00:34;24.04;59.00
40059;SHT31;25763;49.972;8.568;2022-09-03T15:03:17;24.09;59.05
40059;SHT31;25763;49.972;8.568;2022-09-03T15:06:02;23.93;58.83
40059;SHT31;25763;49.972;8.568;2022-09-03T15:08:38;23.90;58.65
40059;SHT31;25763;49.972;8.568;2022-09-03T15:11:30;23.86;59.11
40059;SHT31;25763;49.972;8.568;2022-09-03T15:14:13;24.03;59.67
40059;SHT31;25763;49.972;8.568;2022-09-03T15:17:00;24.13;60.03
40059;SHT31;25763;49.972;8.568;2022-09-03T15:22:32;23.99;58.68
40059;SHT31;25763;49.972;8.568;2022-09-03T15:30:22;24.04;59.12
40059;SHT31;25763;49.972;8.568;2022-09-03T15:35:41;23.96;59.38
40059;SHT31;25763;49.972;8.568;2022-09-03T15:38:19;23.89;59.35
40059;SHT31;25763;49.972;8.568;2022-09-03T15:40:50;23.82;59.54
40059;SHT31;25763;49.972;8.568;2022-09-03T15:53:59;23.48;60.53
40059;SHT31;25763;49.972;8.568;2022-09-03T15:56:36;23.45;60.18
40059;SHT31;25763;49.972;8.568;2022-09-03T16:02:22;23.41;60.72
40059;SHT31;25763;49.972;8.568;2022-09-03T16:04:58;23.40;60.85
40059;SHT31;25763;49.972;8.568;2022-09-03T16:12:39;23.34;61.63
40059;SHT31;25763;49.972;8.568;2022-09-03T16:15:12;23.30;61.07
40059;SHT31;25763;49.972;8.568;2022-09-03T16:17:49;23.28;61.16
40059;SHT31;25763;49.972;8.568;2022-09-03T16:20:27;23.30;61.28
40059;SHT31;25763;49.972;8.568;2022-09-03T16:23:01;23.34;61.59
40059;SHT31;25763;49.972;8.568;2022-09-03T16:26:00;23.30;61.43
40059;SHT31;25763;49.972;8.568;2022-09-03T16:33:50;23.26;61.49
40059;SHT31;25763;49.972;8.568;2022-09-03T16:47:54;23.00;62.72
40059;SHT31;25763;49.972;8.568;2022-09-03T16:51:09;22.58;61.93
40059;SHT31;25763;49.972;8.568;2022-09-03T16:58:57;21.99;63.22
40059;SHT31;25763;49.972;8.568;2022-09-03T17:04:07;21.30;65.38
40059;SHT31;25763;49.972;8.568;2022-09-03T17:06:50;21.16;66.23
40059;SHT31;25763;49.972;8.568;2022-09-03T17:12:01;20.99;68.01
40059;SHT31;25763;49.972;8.568;2022-09-03T17:17:46;20.85;68.76
40059;SHT31;25763;49.972;8.568;2022-09-03T17:25:54;20.69;69.00
40059;SHT31;25763;49.972;8.568;2022-09-03T17:31:26;20.47;69.48
40059;SHT31;25763;49.972;8.568;2022-09-03T17:34:00;20.32;69.77
40059;SHT31;25763;49.972;8.568;2022-09-03T17:36:29;20.36;70.28
40059;SHT31;25763;49.972;8.568;2022-09-03T17:41:51;20.21;70.74
40059;SHT31;25763;49.972;8.568;2022-09-03T17:44:37;20.24;71.06
40059;SHT31;25763;49.972;8.568;2022-09-03T17:52:50;20.24;71.18
40059;SHT31;25763;49.972;8.568;2022-09-03T17:55:41;20.22;71.27
40059;SHT31;25763;49.972;8.568;2022-09-03T17:58:24;20.20;71.21
40059;SHT31;25763;49.972;8.568;2022-09-03T18:00:57;20.22;71.81
40059;SHT31;25763;49.972;8.568;2022-09-03T18:03:33;20.20;71.65
40059;SHT31;25763;49.972;8.568;2022-09-03T18:06:08;20.17;71.51
40059;SHT31;25763;49.972;8.568;2022-09-03T18:08:56;20.21;71.13
40059;SHT31;25763;49.972;8.568;2022-09-03T18:11:33;20.25;71.52
40059;SHT31;25763;49.972;8.568;2022-09-03T18:14:08;20.20;71.79
40059;SHT31;25763;49.972;8.568;2022-09-03T18:19:38;20.12;71.73
40059;SHT31;25763;49.972;8.568;2022-09-03T18:22:31;20.07;71.89
40059;SHT31;25763;49.972;8.568;2022-09-03T18:25:21;20.08;72.21
40059;SHT31;25763;49.972;8.568;2022-09-03T18:28:09;20.08;72.16
40059;SHT31;25763;49.972;8.568;2022-09-03T18:30:55;20.05;72.29
40059;SHT31;25763;49.972;8.568;2022-09-03T18:33:38;20.01;72.56
40059;SHT31;25763;49.972;8.568;2022-09-03T18:36:22;19.93;72.31
40059;SHT31;25763;49.972;8.568;2022-09-03T18:39:23;19.84;72.49
40059;SHT31;25763;49.972;8.568;2022-09-03T18:45:30;19.73;72.97
40059;SHT31;25763;49.972;8.568;2022-09-03T18:48:20;19.70;72.85
40059;SHT31;25763;49.972;8.568;2022-09-03T18:51:59;19.63;72.68
40059;SHT31;25763;49.972;8.568;2022-09-03T18:57:43;19.49;72.99
40059;SHT31;25763;49.972;8.568;2022-09-03T19:00:35;19.46;73.13
40059;SHT31;25763;49.972;8.568;2022-09-03T19:03:47;19.48;73.12
40059;SHT31;25763;49.972;8.568;2022-09-03T19:12:34;19.26;73.65
40059;SHT31;25763;49.972;8.568;2022-09-03T19:15:25;19.23;73.86
40059;SHT31;25763;49.972;8.568;2022-09-03T19:18:15;19.26;73.95
40059;SHT31;25763;49.972;8.568;2022-09-03T19:24:20;19.11;74.22
40059;SHT31;25763;49.972;8.568;2022-09-03T19:27:13;19.11;74.25
40059;SHT31;25763;49.972;8.568;2022-09-03T19:30:06;19.10;74.61
40059;SHT31;25763;49.972;8.568;2022-09-03T19:33:14;19.07;74.27
40059;SHT31;25763;49.972;8.568;2022-09-03T19:42:17;19.02;74.14